Time;durP1;ratioP1;P1;durP2;ratioP2;P2;SDS_P1;SDS_P2;PMS_P1;PMS_P2;Temp;Humidity;BMP_temperature;BMP_pressure;BME280_temperature;BME280_humidity;BME280_pressure;Samples;Min_cycle;Max_cycle;Signal;HPM_P1;HPM_P2
2021/04/08 00:02:19;;;;;;;2.10;0.73;;;3.80;99.90;;;;;;5002940;28;20207;-78
2021/04/08 00:04:46;;;;;;;2.50;0.80;;;3.70;99.90;;;;;;5002220;28;20211;-78
2021/04/08 00:07:12;;;;;;;2.00;0.83;;;3.70;99.90;;;;;;5007827;28;20230;-78
2021/04/08 00:09:38;;;;;;;4.70;1.87;;;3.60;99.90;;;;;;5022176;28;20630;-78
2021/04/08 00:12:05;;;;;;;4.93;0.83;;;3.70;99.90;;;;;;5010785;28;20285;-79
2021/04/08 00:14:32;;;;;;;3.87;1.20;;;3.60;99.90;;;;;;5003168;28;20459;-79
2021/04/08 00:16:58;;;;;;;2.40;1.03;;;3.60;99.90;;;;;;5002663;28;20223;-78
2021/04/08 00:19:25;;;;;;;7.00;1.60;;;3.60;99.90;;;;;;5001881;28;20293;-78
2021/04/08 00:21:51;;;;;;;9.70;1.37;;;3.80;99.90;;;;;;5002450;28;20204;-77
2021/04/08 00:24:18;;;;;;;6.93;1.30;;;3.90;99.90;;;;;;5001814;28;20525;-78
2021/04/08 00:26:44;;;;;;;7.23;1.30;;;4.00;99.90;;;;;;5002166;28;20207;-79
2021/04/08 00:29:10;;;;;;;7.23;1.30;;;4.10;99.90;;;;;;5002587;28;20210;-78
2021/04/08 00:31:37;;;;;;;8.30;1.73;;;4.20;99.90;;;;;;5002168;28;20729;-78
2021/04/08 00:34:04;;;;;;;8.30;1.70;;;4.30;99.90;;;;;;5002281;28;20226;-79
2021/04/08 00:36:30;;;;;;;8.57;1.93;;;4.30;99.90;;;;;;5002441;28;20231;-78
2021/04/08 00:38:56;;;;;;;6.30;1.57;;;4.30;99.90;;;;;;5001591;28;20257;-79
2021/04/08 00:41:24;;;;;;;7.77;1.30;;;4.30;99.90;;;;;;5002094;28;20756;-79
2021/04/08 00:43:50;;;;;;;4.80;1.50;;;4.30;99.90;;;;;;5003283;28;20225;-79
2021/04/08 00:46:17;;;;;;;8.37;1.50;;;4.30;99.90;;;;;;5002462;28;20215;-78
2021/04/08 00:48:44;;;;;;;6.00;1.33;;;4.20;99.90;;;;;;5002276;28;20270;-78
2021/04/08 00:51:10;;;;;;;4.37;1.23;;;4.20;99.90;;;;;;5002318;28;20207;-79
2021/04/08 00:53:36;;;;;;;3.23;1.03;;;4.10;99.90;;;;;;5001633;28;20195;-79
2021/04/08 00:56:03;;;;;;;3.40;1.00;;;4.00;99.90;;;;;;5001698;28;20222;-79
2021/04/08 00:58:31;;;;;;;4.07;1.17;;;4.00;99.90;;;;;;5002851;28;20211;-79
2021/04/08 01:00:58;;;;;;;8.63;1.53;;;3.90;99.90;;;;;;5001118;28;20637;-79
2021/04/08 01:03:24;;;;;;;4.63;1.27;;;3.90;99.90;;;;;;5002577;28;20764;-79
2021/04/08 01:05:52;;;;;;;4.00;1.37;;;3.90;99.90;;;;;;5002648;28;20195;-79
2021/04/08 01:08:18;;;;;;;6.83;1.37;;;3.90;99.90;;;;;;5001262;28;20203;-79
2021/04/08 01:10:45;;;;;;;4.37;1.20;;;3.90;99.90;;;;;;5002073;28;20860;-77
2021/04/08 01:13:15;;;;;;;6.17;1.70;;;3.80;99.90;;;;;;5001963;28;20870;-79
2021/04/08 01:15:42;;;;;;;4.50;1.63;;;3.80;99.90;;;;;;5000366;28;20234;-78
2021/04/08 01:18:19;;;;;;;5.60;1.73;;;3.80;99.90;;;;;;5001761;28;20243;-78
2021/04/08 01:20:59;;;;;;;7.30;1.37;;;3.80;99.90;;;;;;5001821;28;20673;-79
2021/04/08 01:24:11;;;;;;;3.27;1.10;;;3.90;99.90;;;;;;5002109;28;20791;-80
2021/04/08 01:27:24;;;;;;;3.97;1.30;;;3.90;99.90;;;;;;5001675;28;20237;-79
2021/04/08 01:30:14;;;;;;;6.17;1.27;;;3.90;99.90;;;;;;5001394;28;20265;-79
2021/04/08 01:32:45;;;;;;;5.50;0.90;;;3.90;99.90;;;;;;4995311;28;20204;-78
2021/04/08 01:35:14;;;;;;;4.30;0.90;;;3.90;99.90;;;;;;5001641;28;20278;-79
2021/04/08 01:37:48;;;;;;;5.57;1.20;;;3.90;99.90;;;;;;5001402;28;20604;-79
2021/04/08 01:40:16;;;;;;;9.40;1.47;;;3.80;99.90;;;;;;5001725;28;20214;-79
2021/04/08 01:42:45;;;;;;;3.70;1.50;;;3.80;99.90;;;;;;5001011;28;20211;-79
2021/04/08 01:45:13;;;;;;;8.07;1.80;;;3.90;99.90;;;;;;5001214;28;20200;-80
2021/04/08 01:47:43;;;;;;;6.73;1.53;;;3.90;99.90;;;;;;5001001;28;20862;-79
2021/04/08 01:50:12;;;;;;;5.27;1.30;;;4.10;99.90;;;;;;5004040;28;20226;-77
2021/04/08 01:52:41;;;;;;;5.83;1.10;;;4.30;99.90;;;;;;5005058;28;20249;-78
2021/04/08 01:55:09;;;;;;;6.37;1.70;;;4.40;99.90;;;;;;5005302;28;20626;-78
2021/04/08 01:57:38;;;;;;;9.77;1.50;;;4.50;99.90;;;;;;5004673;28;20312;-78
2021/04/08 02:00:06;;;;;;;3.90;1.20;;;4.50;99.90;;;;;;5005029;28;20285;-79
2021/04/08 02:02:34;;;;;;;5.90;1.63;;;4.60;99.90;;;;;;5005871;28;20261;-79
2021/04/08 02:05:01;;;;;;;8.43;1.57;;;4.60;99.90;;;;;;5013686;28;20210;-79
2021/04/08 02:07:28;;;;;;;10.17;1.23;;;4.60;99.90;;;;;;5025347;28;20678;-78
2021/04/08 02:09:55;;;;;;;6.27;1.73;;;4.70;99.90;;;;;;5023338;28;20202;-79
2021/04/08 02:12:23;;;;;;;4.27;1.23;;;4.70;99.90;;;;;;5005192;28;20278;-79
2021/04/08 02:14:50;;;;;;;3.97;1.23;;;4.70;99.90;;;;;;5004974;28;20233;-79
2021/04/08 02:17:18;;;;;;;4.13;1.33;;;4.70;99.90;;;;;;5003902;28;20224;-79
2021/04/08 02:19:47;;;;;;;3.30;1.13;;;4.70;99.90;;;;;;5004761;28;20202;-78
2021/04/08 02:22:15;;;;;;;3.73;1.63;;;4.70;99.90;;;;;;5005433;28;20203;-80
2021/04/08 02:24:43;;;;;;;6.67;1.50;;;4.80;99.90;;;;;;5003945;28;20200;-79
2021/04/08 02:27:10;;;;;;;5.30;1.47;;;4.80;99.90;;;;;;5005994;28;20207;-81
2021/04/08 02:29:39;;;;;;;7.70;1.43;;;4.80;99.90;;;;;;5004476;28;20210;-79
2021/04/08 02:32:07;;;;;;;3.97;1.87;;;4.80;99.90;;;;;;5005365;28;20269;-78
2021/04/08 02:34:34;;;;;;;6.00;1.93;;;4.80;99.90;;;;;;5004967;28;20260;-79
2021/04/08 02:37:00;;;;;;;8.40;2.10;;;4.90;99.90;;;;;;5004834;28;20929;-80
2021/04/08 02:42:50;;;;;;;12.47;2.47;;;4.80;99.90;;;;;;5023494;28;20208;-80
2021/04/08 02:45:17;;;;;;;7.50;2.20;;;4.80;99.90;;;;;;5023260;28;20187;-79
2021/04/08 02:47:44;;;;;;;4.80;2.50;;;4.80;99.90;;;;;;5015968;28;20203;-79
2021/04/08 02:50:13;;;;;;;3.63;2.23;;;4.80;99.90;;;;;;5004408;28;20641;-80
2021/04/08 02:52:50;;;;;;;11.47;2.70;;;4.90;99.90;;;;;;5003972;28;20199;-79
2021/04/08 02:55:21;;;;;;;8.90;2.03;;;4.90;99.90;;;;;;5004672;28;20211;-80
2021/04/08 02:57:54;;;;;;;7.63;1.80;;;4.80;99.90;;;;;;5004496;28;20226;-79
2021/04/08 03:00:24;;;;;;;6.47;1.67;;;4.80;99.90;;;;;;5003161;28;20214;-80
2021/04/08 03:02:53;;;;;;;2.93;1.30;;;4.80;99.90;;;;;;5004091;28;20208;-80
2021/04/08 03:05:21;;;;;;;5.23;1.37;;;4.90;99.90;;;;;;5005880;28;20243;-80
2021/04/08 03:07:51;;;;;;;5.00;1.90;;;4.90;99.90;;;;;;5014570;28;21080;-80
2021/04/08 03:10:18;;;;;;;3.80;1.40;;;4.80;99.90;;;;;;5012996;28;20681;-80
2021/04/08 03:12:48;;;;;;;4.97;1.50;;;4.80;99.90;;;;;;5006050;28;20595;-80
2021/04/08 03:15:21;;;;;;;5.83;1.53;;;4.80;99.90;;;;;;5004440;28;20251;-80
2021/04/08 03:17:49;;;;;;;4.50;2.00;;;4.80;99.90;;;;;;5004242;28;20354;-80
2021/04/08 03:20:16;;;;;;;8.67;2.60;;;4.70;99.90;;;;;;5017295;28;20210;-79
2021/04/08 03:22:44;;;;;;;5.17;1.70;;;4.60;99.90;;;;;;5014667;28;20386;-80
2021/04/08 03:25:11;;;;;;;5.97;1.63;;;4.60;99.90;;;;;;5004875;28;20448;-79
2021/04/08 03:27:39;;;;;;;5.93;1.50;;;4.60;99.90;;;;;;5004036;28;20269;-80
2021/04/08 03:30:09;;;;;;;8.37;1.77;;;4.60;99.90;;;;;;5004039;28;20222;-81
2021/04/08 03:32:37;;;;;;;6.23;1.43;;;4.60;99.90;;;;;;5003989;28;20203;-81
2021/04/08 03:35:04;;;;;;;8.53;1.60;;;4.70;99.90;;;;;;5004107;28;20231;-80
2021/04/08 03:37:30;;;;;;;5.53;1.10;;;4.70;99.90;;;;;;5003647;28;20219;-80
2021/04/08 03:39:56;;;;;;;8.33;1.50;;;4.70;99.90;;;;;;5003947;28;20204;-81
2021/04/08 03:42:24;;;;;;;3.03;0.90;;;4.70;99.90;;;;;;5004265;28;20195;-80
2021/04/08 03:44:51;;;;;;;6.83;1.33;;;4.60;99.90;;;;;;5003613;28;20215;-80
2021/04/08 03:47:17;;;;;;;5.23;1.13;;;4.70;99.90;;;;;;5005014;28;20258;-79
2021/04/08 03:49:48;;;;;;;6.07;2.27;;;4.70;99.90;;;;;;5004965;28;20218;-81
2021/04/08 03:52:15;;;;;;;2.53;1.30;;;4.60;99.90;;;;;;5004583;28;20222;-82
2021/04/08 03:54:43;;;;;;;4.73;1.10;;;4.70;99.90;;;;;;5005477;28;20530;-83
2021/04/08 03:57:12;;;;;;;4.27;1.57;;;4.70;99.90;;;;;;5004901;28;20311;-80
2021/04/08 03:59:40;;;;;;;6.90;1.20;;;4.70;99.90;;;;;;5019558;28;20214;-81
2021/04/08 04:02:06;;;;;;;4.67;1.47;;;4.80;99.90;;;;;;5024234;28;20221;-82
2021/04/08 04:04:34;;;;;;;8.33;1.33;;;4.80;99.90;;;;;;5022749;28;20219;-82
2021/04/08 04:07:02;;;;;;;10.70;2.50;;;4.90;99.90;;;;;;5017598;28;20249;-79
2021/04/08 04:09:28;;;;;;;4.73;1.63;;;4.90;99.90;;;;;;5024539;28;20199;-81
2021/04/08 04:11:56;;;;;;;8.30;1.33;;;4.80;99.90;;;;;;5024360;28;20813;-80
2021/04/08 04:14:27;;;;;;;5.67;1.17;;;4.90;99.90;;;;;;5023676;28;20261;-81
2021/04/08 04:16:56;;;;;;;8.13;2.27;;;4.90;99.90;;;;;;5007156;28;20218;-81
2021/04/08 04:19:25;;;;;;;2.83;1.00;;;5.00;99.90;;;;;;5004307;28;20227;-81
2021/04/08 04:21:52;;;;;;;6.50;1.90;;;4.90;99.90;;;;;;5005098;28;20285;-82
2021/04/08 04:24:20;;;;;;;5.50;1.60;;;4.90;99.90;;;;;;5004379;28;20253;-82
2021/04/08 04:26:46;;;;;;;6.40;1.63;;;4.90;99.90;;;;;;5005073;28;20250;-81
2021/04/08 04:29:12;;;;;;;4.63;1.60;;;5.00;99.90;;;;;;5005316;28;20206;-81
2021/04/08 04:31:39;;;;;;;6.00;1.47;;;5.00;99.90;;;;;;5019755;28;20266;-81
2021/04/08 04:34:06;;;;;;;6.53;1.40;;;5.00;99.90;;;;;;5023066;28;20217;-81
2021/04/08 04:36:32;;;;;;;6.17;1.67;;;4.90;99.90;;;;;;5022701;28;20199;-81
2021/04/08 04:38:59;;;;;;;4.03;1.43;;;5.00;99.90;;;;;;5010664;28;20226;-81
2021/04/08 04:41:26;;;;;;;2.80;1.20;;;5.00;99.90;;;;;;5003704;28;20819;-81
2021/04/08 04:43:52;;;;;;;4.50;1.23;;;5.10;99.90;;;;;;5003959;28;20203;-81
2021/04/08 04:46:19;;;;;;;7.30;1.60;;;5.10;99.90;;;;;;5002802;28;20600;-81
2021/04/08 04:48:45;;;;;;;3.77;1.53;;;5.10;99.90;;;;;;5001993;28;20195;-81
2021/04/08 04:51:11;;;;;;;3.37;1.70;;;5.10;99.90;;;;;;5001692;28;20203;-80
2021/04/08 04:53:37;;;;;;;4.83;1.93;;;5.10;99.90;;;;;;5001504;28;20203;-81
2021/04/08 04:56:05;;;;;;;3.97;1.60;;;5.10;99.90;;;;;;5002280;28;20337;-80
2021/04/08 04:58:32;;;;;;;4.70;1.73;;;5.10;99.90;;;;;;5001906;28;20208;-81
2021/04/08 05:00:58;;;;;;;4.90;1.97;;;5.10;99.90;;;;;;5002151;28;20211;-81
2021/04/08 05:03:25;;;;;;;5.97;1.97;;;5.20;99.90;;;;;;5001516;28;20206;-81
2021/04/08 05:05:51;;;;;;;5.17;1.70;;;5.20;99.90;;;;;;5002159;28;20199;-82
2021/04/08 05:08:17;;;;;;;5.90;1.70;;;5.20;99.90;;;;;;5005276;28;20203;-81
2021/04/08 05:10:44;;;;;;;5.73;1.60;;;5.20;99.90;;;;;;5001707;28;20199;-81
2021/04/08 05:13:10;;;;;;;3.07;1.53;;;5.10;99.90;;;;;;5001606;28;20207;-81
2021/04/08 05:15:38;;;;;;;5.27;1.50;;;5.10;99.90;;;;;;5001605;28;20227;-81
2021/04/08 05:18:04;;;;;;;3.40;1.50;;;5.20;99.90;;;;;;5001498;28;20288;-80
2021/04/08 05:20:30;;;;;;;7.70;1.83;;;5.20;99.90;;;;;;5009656;28;20284;-81
2021/04/08 05:22:57;;;;;;;4.83;1.93;;;5.10;99.90;;;;;;5021715;28;20203;-82
2021/04/08 05:25:23;;;;;;;6.67;1.90;;;5.10;99.90;;;;;;5024607;28;20872;-80
2021/04/08 05:27:49;;;;;;;5.60;2.20;;;5.10;99.90;;;;;;5008099;28;20689;-81
2021/04/08 05:30:17;;;;;;;6.57;1.60;;;5.10;99.90;;;;;;5006383;28;20566;-80
2021/04/08 05:32:44;;;;;;;5.17;1.80;;;5.10;99.90;;;;;;5006032;28;20215;-81
2021/04/08 05:35:12;;;;;;;5.17;1.60;;;5.20;99.90;;;;;;5005651;28;20242;-81
2021/04/08 05:37:38;;;;;;;3.93;1.57;;;5.20;99.90;;;;;;5004946;28;20733;-81
2021/04/08 05:40:05;;;;;;;3.83;1.90;;;5.20;99.90;;;;;;5005607;28;20215;-81
2021/04/08 05:42:32;;;;;;;3.43;1.30;;;5.20;99.90;;;;;;5005102;28;20207;-81
2021/04/08 05:44:58;;;;;;;5.27;1.37;;;5.30;99.90;;;;;;5005427;28;20195;-81
2021/04/08 05:47:24;;;;;;;5.20;1.43;;;5.30;99.90;;;;;;5004947;28;20246;-80
2021/04/08 05:49:51;;;;;;;8.57;1.80;;;5.30;99.90;;;;;;5004817;28;20196;-81
2021/04/08 05:52:17;;;;;;;3.80;2.03;;;5.40;99.90;;;;;;5004636;28;20225;-81
2021/04/08 05:54:44;;;;;;;8.00;1.67;;;5.40;99.90;;;;;;5004554;28;20234;-81
2021/04/08 05:57:11;;;;;;;4.33;1.70;;;5.40;99.90;;;;;;5004848;28;20285;-81
2021/04/08 05:59:37;;;;;;;6.43;2.20;;;5.50;99.90;;;;;;5006163;28;20207;-81
2021/04/08 06:02:03;;;;;;;8.07;2.30;;;5.40;99.90;;;;;;5005423;28;20203;-81
2021/04/08 06:04:30;;;;;;;6.90;1.83;;;5.50;99.90;;;;;;5004453;28;20233;-80
2021/04/08 06:06:57;;;;;;;3.70;1.77;;;5.50;99.90;;;;;;5007255;28;20206;-81
2021/04/08 06:09:23;;;;;;;7.27;2.17;;;5.50;99.90;;;;;;5024071;28;20816;-80
2021/04/08 06:11:49;;;;;;;2.83;1.70;;;5.50;99.90;;;;;;5024090;28;20688;-80
2021/04/08 06:14:16;;;;;;;4.13;1.80;;;5.50;99.90;;;;;;5017584;28;20326;-81
2021/04/08 06:16:42;;;;;;;3.10;1.30;;;5.60;99.90;;;;;;5003967;28;20207;-81
2021/04/08 06:19:08;;;;;;;5.57;2.13;;;5.70;99.90;;;;;;5004320;28;20242;-81
2021/04/08 06:21:38;;;;;;;3.87;1.83;;;5.70;99.90;;;;;;5004036;28;20249;-79
2021/04/08 06:24:07;;;;;;;3.00;1.60;;;5.80;99.90;;;;;;5004628;28;20210;-81
2021/04/08 06:26:34;;;;;;;2.57;1.40;;;5.80;99.90;;;;;;5012034;28;20292;-81
2021/04/08 06:29:00;;;;;;;3.63;2.03;;;5.80;99.90;;;;;;5025002;28;20207;-79
2021/04/08 06:31:28;;;;;;;3.90;1.50;;;5.80;99.90;;;;;;5024968;28;20274;-79
2021/04/08 06:33:54;;;;;;;3.77;1.73;;;5.90;99.90;;;;;;5023662;28;20213;-81
2021/04/08 06:36:21;;;;;;;4.03;1.90;;;5.90;99.90;;;;;;5022352;28;20230;-79
2021/04/08 06:38:49;;;;;;;6.10;2.23;;;6.00;99.90;;;;;;5014139;28;20657;-80
2021/04/08 06:41:16;;;;;;;5.23;2.17;;;6.10;99.90;;;;;;5003515;28;20203;-80
2021/04/08 06:43:45;;;;;;;4.83;2.17;;;6.10;99.90;;;;;;5003158;28;20967;-81
2021/04/08 06:46:15;;;;;;;7.40;2.27;;;6.20;99.90;;;;;;4993496;28;20285;-80
2021/04/08 06:48:44;;;;;;;5.03;2.50;;;6.20;99.90;;;;;;5023496;28;20332;-80
2021/04/08 06:51:13;;;;;;;6.13;3.00;;;6.30;99.90;;;;;;5024149;28;20207;-80
2021/04/08 06:53:40;;;;;;;8.47;3.13;;;6.40;99.90;;;;;;5023011;28;20595;-81
2021/04/08 06:56:08;;;;;;;6.83;3.40;;;6.40;99.90;;;;;;5024207;28;20234;-82
2021/04/08 06:58:37;;;;;;;9.63;3.07;;;6.40;99.90;;;;;;5023050;28;20265;-80
2021/04/08 07:01:07;;;;;;;3.27;2.03;;;6.50;99.90;;;;;;5019647;28;20287;-79
2021/04/08 07:03:35;;;;;;;7.23;2.37;;;6.50;99.90;;;;;;5012853;28;20203;-82
2021/04/08 07:06:01;;;;;;;3.80;2.13;;;6.50;99.90;;;;;;5004530;28;20319;-81
2021/04/08 07:08:29;;;;;;;2.47;1.83;;;6.60;99.90;;;;;;5019738;28;20206;-82
2021/04/08 07:10:56;;;;;;;5.23;1.43;;;6.60;99.90;;;;;;5014602;28;20239;-81
2021/04/08 07:13:22;;;;;;;4.33;1.73;;;6.60;99.90;;;;;;5004398;28;20203;-81
2021/04/08 07:15:50;;;;;;;4.53;1.60;;;6.60;99.90;;;;;;5003833;28;20231;-79
2021/04/08 07:18:16;;;;;;;5.00;2.00;;;6.70;99.90;;;;;;4995213;28;20236;-79
2021/04/08 07:20:42;;;;;;;3.57;1.83;;;6.90;99.90;;;;;;4985447;28;20211;-80
2021/04/08 07:23:10;;;;;;;5.10;1.70;;;7.00;99.90;;;;;;4984701;28;20203;-81
2021/04/08 07:25:36;;;;;;;3.23;1.70;;;7.10;99.90;;;;;;4984316;28;20200;-80
2021/04/08 07:28:31;;;;;;;4.07;1.70;;;7.10;99.90;;;;;;4984015;28;20238;-80
2021/04/08 07:31:22;;;;;;;4.80;2.20;;;7.10;99.90;;;;;;4984026;28;20204;-80
2021/04/08 07:33:49;;;;;;;5.83;2.63;;;7.00;99.90;;;;;;4984314;28;20251;-81
2021/04/08 07:36:29;;;;;;;1.97;1.67;;;7.00;99.90;;;;;;4985980;28;20231;-82
2021/04/08 07:38:57;;;;;;;3.27;1.77;;;7.10;99.90;;;;;;4986184;28;20195;-83
2021/04/08 07:41:28;;;;;;;3.23;1.63;;;7.20;99.90;;;;;;4985819;28;20208;-81
2021/04/08 07:43:58;;;;;;;5.87;2.20;;;7.10;99.90;;;;;;4985271;28;20211;-82
2021/04/08 07:46:34;;;;;;;3.73;2.00;;;7.10;99.90;;;;;;4990289;28;20654;-83
2021/04/08 07:49:00;;;;;;;3.33;2.10;;;7.20;99.90;;;;;;5005573;28;20199;-84
2021/04/08 07:51:35;;;;;;;4.23;1.93;;;7.10;99.90;;;;;;5007455;28;20207;-83
2021/04/08 07:54:12;;;;;;;3.20;2.23;;;7.20;99.90;;;;;;5006938;28;20210;-85
2021/04/08 07:56:39;;;;;;;4.57;2.20;;;7.20;99.90;;;;;;4993410;28;20718;-83
2021/04/08 07:59:21;;;;;;;5.43;2.27;;;7.30;99.90;;;;;;4988974;28;20208;-84
2021/04/08 08:01:50;;;;;;;3.30;2.13;;;7.40;99.90;;;;;;4986415;28;20218;-84
2021/04/08 08:04:24;;;;;;;4.50;2.23;;;7.50;99.90;;;;;;4985255;28;20302;-81
2021/04/08 08:06:51;;;;;;;4.97;2.40;;;7.60;99.90;;;;;;4985715;28;20214;-83
2021/04/08 08:09:22;;;;;;;3.07;2.00;;;7.70;99.90;;;;;;5005733;28;20246;-82
2021/04/08 08:11:49;;;;;;;5.57;2.17;;;7.80;99.90;;;;;;5004164;28;20207;-81
2021/04/08 08:14:18;;;;;;;5.47;2.47;;;7.90;99.90;;;;;;4999338;28;20212;-80
2021/04/08 08:17:04;;;;;;;5.77;2.80;;;7.90;99.90;;;;;;4986780;28;20206;-82
2021/04/08 08:19:31;;;;;;;4.63;2.53;;;8.00;99.90;;;;;;4986683;28;20215;-83
2021/04/08 08:21:58;;;;;;;5.57;2.60;;;8.00;99.90;;;;;;4987173;28;20246;-82
2021/04/08 08:24:25;;;;;;;6.63;2.83;;;8.00;99.90;;;;;;5004966;28;20782;-81
2021/04/08 08:26:52;;;;;;;3.97;2.70;;;8.10;99.90;;;;;;5004885;28;20207;-84
2021/04/08 08:29:20;;;;;;;7.47;2.80;;;8.10;99.90;;;;;;5005333;28;20203;-83
2021/04/08 08:31:48;;;;;;;9.23;3.40;;;8.10;99.90;;;;;;5003101;28;20219;-82
2021/04/08 08:34:19;;;;;;;5.17;2.93;;;8.10;99.90;;;;;;5004909;28;20203;-81
2021/04/08 08:36:48;;;;;;;8.70;3.53;;;8.20;99.90;;;;;;5004776;28;20199;-82
2021/04/08 08:39:17;;;;;;;6.50;3.07;;;8.10;99.90;;;;;;4999837;28;20207;-82
2021/04/08 08:41:45;;;;;;;7.63;3.47;;;8.10;99.90;;;;;;4985491;28;20505;-81
2021/04/08 08:44:13;;;;;;;8.20;3.40;;;8.10;99.90;;;;;;4986280;28;20216;-82
2021/04/08 08:46:45;;;;;;;5.50;3.90;;;8.10;99.90;;;;;;4986887;28;20207;-84
2021/04/08 08:49:28;;;;;;;7.63;3.80;;;8.30;99.90;;;;;;4983997;28;20216;-83
2021/04/08 08:51:58;;;;;;;6.43;4.10;;;8.40;99.90;;;;;;4983055;28;20208;-83
2021/04/08 08:54:25;;;;;;;4.10;3.70;;;8.50;99.90;;;;;;4982110;28;20266;-82
2021/04/08 08:56:52;;;;;;;8.50;4.30;;;8.80;99.90;;;;;;4991240;28;20293;-81
2021/04/08 08:59:19;;;;;;;8.33;4.67;;;9.00;99.90;;;;;;5006030;28;20210;-82
2021/04/08 09:01:46;;;;;;;7.77;5.20;;;9.00;99.90;;;;;;5006281;28;20207;-82
2021/04/08 09:04:12;;;;;;;7.30;4.37;;;9.20;99.90;;;;;;5006974;28;20210;-82
2021/04/08 09:06:42;;;;;;;7.27;5.07;;;9.30;99.90;;;;;;5006391;28;20207;-82
2021/04/08 09:09:11;;;;;;;5.77;4.47;;;9.30;99.90;;;;;;5007405;28;20203;-83
2021/04/08 09:11:40;;;;;;;6.70;3.90;;;9.30;99.90;;;;;;5006946;28;20304;-82
2021/04/08 09:14:07;;;;;;;5.97;3.87;;;9.30;99.90;;;;;;5007901;28;20203;-82
2021/04/08 09:16:43;;;;;;;4.93;4.43;;;9.30;99.90;;;;;;5006525;28;20238;-83
2021/04/08 09:19:09;;;;;;;5.97;4.20;;;9.40;99.90;;;;;;4989888;28;20235;-83
2021/04/08 09:21:45;;;;;;;6.90;4.43;;;9.40;99.90;;;;;;4986992;28;20215;-80
2021/04/08 09:24:17;;;;;;;7.43;4.87;;;9.40;99.90;;;;;;4987269;28;20215;-82
2021/04/08 09:26:48;;;;;;;7.97;5.00;;;9.50;99.90;;;;;;5001989;28;20210;-82
2021/04/08 09:29:42;;;;;;;8.07;5.40;;;9.50;99.90;;;;;;5005251;28;20212;-82
2021/04/08 09:32:21;;;;;;;7.33;4.80;;;9.60;99.90;;;;;;4988144;28;20214;-82
2021/04/08 09:35:12;;;;;;;5.37;4.87;;;9.70;99.90;;;;;;4986062;28;20246;-82
2021/04/08 09:38:14;;;;;;;5.37;4.87;;;9.80;99.90;;;;;;4999506;28;20549;-82
2021/04/08 09:40:48;;;;;;;5.17;4.67;;;9.80;99.90;;;;;;5005540;28;20195;-82
2021/04/08 09:43:16;;;;;;;5.97;5.37;;;9.80;99.90;;;;;;5007522;28;20221;-81
2021/04/08 09:45:44;;;;;;;6.13;5.37;;;9.90;99.90;;;;;;5005251;28;20551;-82
2021/04/08 09:48:12;;;;;;;11.53;6.07;;;10.00;99.90;;;;;;5005745;28;20779;-82
2021/04/08 09:50:46;;;;;;;7.37;5.30;;;10.00;99.90;;;;;;5003593;28;20196;-80
2021/04/08 09:53:12;;;;;;;5.33;4.83;;;10.10;99.90;;;;;;5001312;28;20439;-82
2021/04/08 09:55:41;;;;;;;7.47;4.73;;;10.20;99.90;;;;;;4983132;28;20220;-84
2021/04/08 09:58:08;;;;;;;7.83;5.10;;;10.30;99.90;;;;;;4984521;28;20212;-80
2021/04/08 10:00:35;;;;;;;6.67;5.13;;;10.50;99.90;;;;;;4983693;28;20211;-81
2021/04/08 10:03:05;;;;;;;6.00;4.43;;;10.60;99.90;;;;;;4996127;28;20219;-81
2021/04/08 10:05:33;;;;;;;8.07;4.93;;;10.70;99.90;;;;;;5004272;28;20493;-80
2021/04/08 10:08:00;;;;;;;9.23;5.47;;;10.90;99.90;;;;;;4993576;28;20212;-79
2021/04/08 10:10:40;;;;;;;6.60;4.40;;;11.00;99.90;;;;;;4983337;28;20204;-80
2021/04/08 10:13:18;;;;;;;8.73;5.10;;;11.10;99.90;;;;;;4986971;28;20204;-80
2021/04/08 10:15:45;;;;;;;7.60;4.67;;;11.30;99.90;;;;;;4986180;28;20246;-80
2021/04/08 10:18:15;;;;;;;6.20;4.60;;;11.50;99.90;;;;;;4986812;28;20679;-80
2021/04/08 10:20:42;;;;;;;6.17;4.27;;;11.60;99.90;;;;;;4985726;28;20208;-80
2021/04/08 10:23:08;;;;;;;5.90;3.53;;;11.60;99.90;;;;;;4985739;28;20211;-81
2021/04/08 10:25:35;;;;;;;5.30;3.30;;;11.80;99.90;;;;;;4986261;28;20496;-79
2021/04/08 10:28:02;;;;;;;6.07;3.23;;;12.00;99.90;;;;;;4986469;28;20562;-81
2021/04/08 10:30:35;;;;;;;3.00;2.40;;;12.30;99.90;;;;;;4984907;28;20203;-79
2021/04/08 10:33:13;;;;;;;5.07;2.30;;;12.40;99.90;;;;;;4986041;28;20220;-79
2021/04/08 10:35:39;;;;;;;4.97;2.93;;;12.40;99.90;;;;;;4985489;28;20800;-80
2021/04/08 10:38:07;;;;;;;3.40;2.17;;;12.40;99.90;;;;;;4987996;28;20212;-83
2021/04/08 10:40:35;;;;;;;6.53;2.27;;;12.10;99.90;;;;;;4987451;28;20920;-82
2021/04/08 10:43:10;;;;;;;4.20;1.77;;;12.30;99.90;;;;;;4987996;28;20208;-82
2021/04/08 10:45:37;;;;;;;4.03;1.70;;;12.50;99.90;;;;;;4987085;28;20199;-81
2021/04/08 10:48:07;;;;;;;3.37;1.50;;;12.70;99.90;;;;;;4989332;28;20203;-84
2021/04/08 10:50:34;;;;;;;2.33;1.60;;;12.90;99.90;;;;;;4988956;28;20299;-84
2021/04/08 10:53:01;;;;;;;4.80;1.97;;;13.00;99.90;;;;;;4987540;28;20216;-79
2021/04/08 10:55:28;;;;;;;5.00;2.53;;;13.00;99.90;;;;;;4988098;28;20219;-84
2021/04/08 10:57:54;;;;;;;4.23;2.00;;;12.90;99.90;;;;;;4989632;28;20285;-81
2021/04/08 11:00:24;;;;;;;3.33;2.00;;;12.90;99.90;;;;;;5005675;28;20203;-80
2021/04/08 11:02:51;;;;;;;3.77;1.80;;;12.90;99.90;;;;;;5002941;28;20219;-80
2021/04/08 11:05:20;;;;;;;2.50;1.60;;;13.00;99.90;;;;;;4988527;28;20196;-84
2021/04/08 11:07:48;;;;;;;2.70;1.43;;;13.00;99.90;;;;;;4994914;28;20210;-82
2021/04/08 11:10:16;;;;;;;3.83;1.60;;;13.00;99.90;;;;;;4998560;28;20330;-82
2021/04/08 11:12:43;;;;;;;4.37;2.00;;;12.90;99.90;;;;;;4985322;28;20204;-82
2021/04/08 11:15:11;;;;;;;2.53;1.10;;;13.00;99.90;;;;;;4986080;28;20215;-83
2021/04/08 11:17:44;;;;;;;3.07;1.70;;;13.10;99.90;;;;;;4987792;28;20242;-81
2021/04/08 11:20:12;;;;;;;3.57;1.30;;;13.30;99.90;;;;;;4985431;28;20657;-82
2021/04/08 11:22:43;;;;;;;3.80;1.40;;;13.20;99.90;;;;;;4987165;28;20196;-81
2021/04/08 11:25:11;;;;;;;4.20;2.13;;;13.20;99.90;;;;;;4990248;28;20631;-84
2021/04/08 11:27:40;;;;;;;4.03;1.67;;;13.20;99.90;;;;;;4988984;28;20211;-84
2021/04/08 11:30:08;;;;;;;4.40;1.67;;;13.20;99.90;;;;;;4989455;28;20262;-82
2021/04/08 11:32:47;;;;;;;9.90;1.50;;;13.20;99.90;;;;;;4991102;28;20210;-85
2021/04/08 11:35:28;;;;;;;3.13;1.47;;;13.20;99.90;;;;;;5007972;28;20222;-85
2021/04/08 11:38:14;;;;;;;3.77;1.47;;;13.10;99.90;;;;;;5003944;28;20222;-84
2021/04/08 11:40:42;;;;;;;2.80;1.70;;;13.00;99.90;;;;;;5007685;28;20294;-83
2021/04/08 11:43:19;;;;;;;2.33;1.50;;;13.00;99.90;;;;;;5008866;28;20199;-85
2021/04/08 11:45:45;;;;;;;2.53;1.50;;;13.00;99.90;;;;;;4995250;28;20612;-85
2021/04/08 11:48:13;;;;;;;3.57;1.90;;;13.10;99.90;;;;;;4984897;28;20679;-83
2021/04/08 11:50:42;;;;;;;3.30;1.30;;;13.10;99.90;;;;;;4987548;28;20889;-85
2021/04/08 11:53:09;;;;;;;3.37;1.47;;;13.10;99.90;;;;;;4987483;28;20288;-84
2021/04/08 11:55:41;;;;;;;9.07;1.60;;;13.10;99.90;;;;;;4988757;28;20508;-86
2021/04/08 11:58:09;;;;;;;3.90;1.40;;;13.10;99.90;;;;;;4989389;28;20210;-86
2021/04/08 12:00:37;;;;;;;4.83;1.33;;;13.10;99.90;;;;;;4994559;28;20238;-86
2021/04/08 12:03:19;;;;;;;4.97;1.57;;;13.20;99.90;;;;;;5007705;28;20620;-82
2021/04/08 12:05:45;;;;;;;6.27;1.40;;;13.10;99.90;;;;;;5005482;28;20196;-86
2021/04/08 12:08:12;;;;;;;6.60;1.23;;;13.10;99.90;;;;;;4999456;28;20203;-79
2021/04/08 12:10:39;;;;;;;2.47;1.00;;;13.10;99.90;;;;;;4999268;28;20211;-86
2021/04/08 12:13:07;;;;;;;3.27;1.50;;;13.00;99.90;;;;;;4988087;28;20200;-87
2021/04/08 12:15:40;;;;;;;5.53;1.10;;;13.00;99.90;;;;;;4985675;28;20224;-84
2021/04/08 12:18:17;;;;;;;1.77;1.00;;;13.10;99.90;;;;;;4985473;28;20925;-86
2021/04/08 12:20:44;;;;;;;7.80;1.40;;;13.20;99.90;;;;;;4986750;28;20265;-80
2021/04/08 12:23:11;;;;;;;4.87;1.63;;;13.20;99.90;;;;;;4985665;28;20200;-84
2021/04/08 12:25:43;;;;;;;5.70;1.80;;;13.30;99.90;;;;;;4983793;28;20203;-81
2021/04/08 12:28:09;;;;;;;7.03;2.00;;;13.30;99.90;;;;;;4987397;28;20216;-85
2021/04/08 12:30:45;;;;;;;2.93;1.60;;;13.20;99.90;;;;;;4986053;28;20357;-82
2021/04/08 12:33:12;;;;;;;3.83;1.87;;;12.90;99.90;;;;;;4984889;28;20199;-83
2021/04/08 12:35:39;;;;;;;2.33;1.60;;;12.90;99.90;;;;;;4985606;28;20311;-86
2021/04/08 12:38:05;;;;;;;4.30;1.67;;;12.90;99.90;;;;;;4985436;28;20255;-81
2021/04/08 12:40:32;;;;;;;6.30;2.03;;;12.60;99.90;;;;;;4985507;28;20195;-83
2021/04/08 12:42:58;;;;;;;5.03;1.80;;;12.50;99.90;;;;;;4986354;28;20223;-81
2021/04/08 12:45:25;;;;;;;3.57;1.80;;;12.60;99.90;;;;;;4984093;28;20203;-80
2021/04/08 12:47:51;;;;;;;4.93;1.10;;;12.70;99.90;;;;;;4984306;28;20207;-81
2021/04/08 12:50:17;;;;;;;3.57;1.47;;;12.80;99.90;;;;;;4984460;28;20281;-85
2021/04/08 12:52:44;;;;;;;2.93;1.20;;;12.90;99.90;;;;;;4985790;28;20219;-85
2021/04/08 12:55:12;;;;;;;3.93;1.43;;;13.00;99.90;;;;;;4984021;28;20234;-81
2021/04/08 12:57:39;;;;;;;6.57;1.77;;;12.90;99.90;;;;;;4982550;28;20243;-81
2021/04/08 13:00:07;;;;;;;4.27;1.83;;;12.90;99.90;;;;;;4983312;28;20200;-84
2021/04/08 13:02:33;;;;;;;2.03;1.17;;;12.60;99.90;;;;;;4984111;28;20217;-81
2021/04/08 13:04:59;;;;;;;3.43;1.40;;;12.60;99.90;;;;;;4983194;28;20218;-80
2021/04/08 13:07:26;;;;;;;4.60;1.33;;;12.60;99.90;;;;;;4988805;28;20287;-81
2021/04/08 13:09:53;;;;;;;4.83;1.87;;;12.70;99.90;;;;;;5001971;28;20568;-82